Time;durP1;ratioP1;P1;durP2;ratioP2;P2;SDS_P1;SDS_P2;PMS_P1;PMS_P2;Temp;Humidity;BMP_temperature;BMP_pressure;BME280_temperature;BME280_humidity;BME280_pressure;Samples;Min_cycle;Max_cycle;Signal;HPM_P1;HPM_P2
2023/08/13 00:01:30;;;;;;;7.45;5.50;;;;;;;;;;4998004;28;20082;-51
2023/08/13 00:03:55;;;;;;;8.38;6.03;;;;;;;;;;4986401;28;20034;-50
2023/08/13 00:06:21;;;;;;;6.05;5.50;;;;;;;;;;4981182;28;20038;-48
2023/08/13 00:08:46;;;;;;;8.95;6.25;;;;;;;;;;5000088;28;20023;-49
2023/08/13 00:11:12;;;;;;;8.10;5.85;;;;;;;;;;4996523;28;20118;-49
2023/08/13 00:13:38;;;;;;;10.32;6.40;;;;;;;;;;4980560;28;20061;-48
2023/08/13 00:16:04;;;;;;;10.10;5.82;;;;;;;;;;4996178;28;20057;-46
2023/08/13 00:18:31;;;;;;;7.88;5.90;;;;;;;;;;4996489;28;20031;-49
2023/08/13 00:20:57;;;;;;;8.18;6.00;;;;;;;;;;4998634;28;20173;-47
2023/08/13 00:23:23;;;;;;;7.88;5.90;;;;;;;;;;4997932;28;20053;-47
2023/08/13 00:25:48;;;;;;;10.73;6.32;;;;;;;;;;4995683;28;20400;-48
2023/08/13 00:28:13;;;;;;;10.00;6.47;;;;;;;;;;4981056;28;20022;-50
2023/08/13 00:30:39;;;;;;;15.18;7.03;;;;;;;;;;4997969;28;20104;-48
2023/08/13 00:33:04;;;;;;;9.63;7.80;;;;;;;;;;4998136;28;20032;-47
2023/08/13 00:35:30;;;;;;;10.50;7.20;;;;;;;;;;4997292;28;20050;-49
2023/08/13 00:37:55;;;;;;;9.57;8.05;;;;;;;;;;4984978;28;20080;-49
2023/08/13 00:40:21;;;;;;;13.75;8.40;;;;;;;;;;4961674;28;20046;-50
2023/08/13 00:42:46;;;;;;;8.15;6.88;;;;;;;;;;4998701;28;20492;-51
2023/08/13 00:45:11;;;;;;;7.00;5.68;;;;;;;;;;4996016;28;20039;-48
2023/08/13 00:47:37;;;;;;;8.52;6.10;;;;;;;;;;5029468;28;20117;-48
2023/08/13 00:50:04;;;;;;;8.68;5.95;;;;;;;;;;4996151;28;20042;-47
2023/08/13 00:52:30;;;;;;;8.82;5.85;;;;;;;;;;4996598;28;20029;-45
2023/08/13 00:54:56;;;;;;;6.38;5.72;;;;;;;;;;4984598;28;20038;-49
2023/08/13 00:57:22;;;;;;;7.88;5.88;;;;;;;;;;4997042;28;20034;-47
2023/08/13 00:59:47;;;;;;;7.28;5.68;;;;;;;;;;4996207;28;20480;-50
2023/08/13 01:02:13;;;;;;;6.38;5.78;;;;;;;;;;4993864;28;20061;-49
2023/08/13 01:04:38;;;;;;;10.88;5.72;;;;;;;;;;4995855;28;20082;-49
2023/08/13 01:07:21;;;;;;;12.02;6.00;;;;;;;;;;4988428;28;20030;-49
2023/08/13 01:09:56;;;;;;;11.18;5.60;;;;;;;;;;4999203;28;20121;-46
2023/08/13 01:12:41;;;;;;;6.40;5.75;;;;;;;;;;5003424;28;20038;-45
2023/08/13 01:15:29;;;;;;;7.60;5.43;;;;;;;;;;5024069;28;20504;-47
2023/08/13 01:17:56;;;;;;;8.30;5.40;;;;;;;;;;4997023;28;20030;-45
2023/08/13 01:20:43;;;;;;;10.32;5.32;;;;;;;;;;4996169;28;20034;-46
2023/08/13 01:23:08;;;;;;;11.10;5.53;;;;;;;;;;4983833;28;20434;-47
2023/08/13 01:25:34;;;;;;;6.15;5.47;;;;;;;;;;4996292;28;20177;-49
2023/08/13 01:28:28;;;;;;;11.60;5.30;;;;;;;;;;4979434;28;20378;-50
2023/08/13 01:31:04;;;;;;;11.75;5.70;;;;;;;;;;4997018;28;20042;-50
2023/08/13 01:33:33;;;;;;;11.63;5.45;;;;;;;;;;4981115;28;20026;-51
2023/08/13 01:36:07;;;;;;;8.15;5.40;;;;;;;;;;4996076;28;20061;-50
2023/08/13 01:38:33;;;;;;;7.00;5.95;;;;;;;;;;4983030;28;20026;-49
2023/08/13 01:41:03;;;;;;;9.18;5.50;;;;;;;;;;4996024;28;20085;-46
2023/08/13 01:43:28;;;;;;;7.50;5.80;;;;;;;;;;4998253;28;20026;-50
2023/08/13 01:45:55;;;;;;;9.18;6.05;;;;;;;;;;4993777;28;20038;-45
2023/08/13 01:48:21;;;;;;;5.97;5.38;;;;;;;;;;4997514;28;20022;-46
2023/08/13 01:50:46;;;;;;;9.38;5.45;;;;;;;;;;4993417;28;20057;-45
2023/08/13 01:53:12;;;;;;;7.25;5.30;;;;;;;;;;5000003;28;20460;-46
2023/08/13 01:55:37;;;;;;;6.53;4.82;;;;;;;;;;5002380;28;20062;-48
2023/08/13 01:58:03;;;;;;;5.75;5.07;;;;;;;;;;4993007;28;20041;-45
2023/08/13 02:00:28;;;;;;;7.75;5.07;;;;;;;;;;4995452;28;20046;-48
2023/08/13 02:02:55;;;;;;;8.05;6.07;;;;;;;;;;4995058;28;20497;-48
2023/08/13 02:05:20;;;;;;;7.70;6.15;;;;;;;;;;4992910;28;20038;-47
2023/08/13 02:07:46;;;;;;;9.00;6.30;;;;;;;;;;4995500;28;20025;-48
2023/08/13 02:10:11;;;;;;;7.75;6.45;;;;;;;;;;4995171;28;20057;-48
2023/08/13 02:12:37;;;;;;;8.02;6.25;;;;;;;;;;4995465;28;20030;-47
2023/08/13 02:15:02;;;;;;;10.98;6.97;;;;;;;;;;4995068;28;20077;-48
2023/08/13 02:17:28;;;;;;;7.60;5.97;;;;;;;;;;4992601;28;20037;-49
2023/08/13 02:19:53;;;;;;;8.38;5.57;;;;;;;;;;4995292;28;20026;-44
2023/08/13 02:22:19;;;;;;;11.05;5.82;;;;;;;;;;4977377;28;20082;-45
2023/08/13 02:24:44;;;;;;;6.50;5.68;;;;;;;;;;4994785;28;20033;-46
2023/08/13 02:27:10;;;;;;;7.97;5.55;;;;;;;;;;4994604;28;20037;-45
2023/08/13 02:29:35;;;;;;;6.95;5.82;;;;;;;;;;4995227;28;20038;-47
2023/08/13 02:32:00;;;;;;;6.80;5.65;;;;;;;;;;4996343;28;20116;-46
2023/08/13 02:34:26;;;;;;;5.95;5.32;;;;;;;;;;4995215;28;20042;-45
2023/08/13 02:36:52;;;;;;;9.23;6.22;;;;;;;;;;4993677;28;20062;-48
2023/08/13 02:39:17;;;;;;;11.07;6.07;;;;;;;;;;4996077;28;20018;-50
2023/08/13 02:41:43;;;;;;;5.75;5.25;;;;;;;;;;4993841;28;20047;-46
2023/08/13 02:44:08;;;;;;;8.55;6.40;;;;;;;;;;4979086;28;20037;-47
2023/08/13 02:46:34;;;;;;;7.32;5.93;;;;;;;;;;4992724;28;20092;-48
2023/08/13 02:48:59;;;;;;;7.90;6.30;;;;;;;;;;4995357;28;20053;-46
2023/08/13 02:51:25;;;;;;;7.55;6.30;;;;;;;;;;4975957;28;20038;-45
2023/08/13 02:53:51;;;;;;;7.85;6.50;;;;;;;;;;4988117;28;20035;-45
2023/08/13 02:56:18;;;;;;;7.18;6.32;;;;;;;;;;4984991;28;20519;-49
2023/08/13 02:58:44;;;;;;;9.73;6.03;;;;;;;;;;4995033;28;20034;-48
2023/08/13 03:01:10;;;;;;;7.15;6.38;;;;;;;;;;4976585;28;20562;-48
2023/08/13 03:03:36;;;;;;;7.50;6.22;;;;;;;;;;4996115;28;20049;-45
2023/08/13 03:06:01;;;;;;;7.80;5.97;;;;;;;;;;4994567;28;20038;-49
2023/08/13 03:08:27;;;;;;;10.82;6.38;;;;;;;;;;4993490;28;20022;-47
2023/08/13 03:10:52;;;;;;;12.73;6.60;;;;;;;;;;4995774;28;20038;-47
2023/08/13 03:13:17;;;;;;;9.00;5.78;;;;;;;;;;4976411;28;20097;-45
2023/08/13 03:15:44;;;;;;;7.30;5.85;;;;;;;;;;4992360;28;20042;-45
2023/08/13 03:18:10;;;;;;;9.15;6.50;;;;;;;;;;4996306;28;20057;-47
2023/08/13 03:20:35;;;;;;;10.18;6.70;;;;;;;;;;4996065;28;20089;-48
2023/08/13 03:23:01;;;;;;;7.10;6.00;;;;;;;;;;4994215;28;20052;-47
2023/08/13 03:25:26;;;;;;;13.35;6.50;;;;;;;;;;4993681;28;20050;-45
2023/08/13 03:27:51;;;;;;;8.15;6.57;;;;;;;;;;4994486;28;20033;-45
2023/08/13 03:30:17;;;;;;;10.40;6.50;;;;;;;;;;4983451;28;20035;-45
2023/08/13 03:32:42;;;;;;;7.80;6.25;;;;;;;;;;4995297;28;20130;-45
2023/08/13 03:35:08;;;;;;;11.15;6.68;;;;;;;;;;4990822;28;20054;-45
2023/08/13 03:37:34;;;;;;;14.77;6.60;;;;;;;;;;4996040;28;20027;-44
2023/08/13 03:39:59;;;;;;;9.40;6.60;;;;;;;;;;4993917;28;20374;-45
2023/08/13 03:42:25;;;;;;;8.82;6.57;;;;;;;;;;4994558;28;20033;-49
2023/08/13 03:44:50;;;;;;;10.05;6.93;;;;;;;;;;5027569;28;20037;-47
2023/08/13 03:47:15;;;;;;;12.68;6.70;;;;;;;;;;4989870;28;20045;-47
2023/08/13 03:49:41;;;;;;;9.20;7.35;;;;;;;;;;4993409;28;20054;-47
2023/08/13 03:52:06;;;;;;;9.68;6.88;;;;;;;;;;4997446;28;20965;-48
2023/08/13 03:54:32;;;;;;;9.45;6.88;;;;;;;;;;4997905;28;20030;-46
2023/08/13 03:56:57;;;;;;;11.10;7.35;;;;;;;;;;4997385;28;20049;-46
2023/08/13 03:59:23;;;;;;;8.50;6.93;;;;;;;;;;4998146;28;20389;-48
2023/08/13 04:01:48;;;;;;;8.63;7.15;;;;;;;;;;4997156;28;21526;-48
2023/08/13 04:04:14;;;;;;;10.60;7.50;;;;;;;;;;4999594;28;20362;-48
2023/08/13 04:06:39;;;;;;;13.70;7.80;;;;;;;;;;4994988;28;20489;-47
2023/08/13 04:09:05;;;;;;;8.68;6.30;;;;;;;;;;4997702;28;20030;-48
2023/08/13 04:11:31;;;;;;;9.48;6.72;;;;;;;;;;4992320;28;20129;-48
2023/08/13 04:13:56;;;;;;;10.07;6.10;;;;;;;;;;4992432;28;20065;-48
2023/08/13 04:16:22;;;;;;;7.70;5.65;;;;;;;;;;4991570;28;20066;-49
2023/08/13 04:18:50;;;;;;;5.85;5.35;;;;;;;;;;4984872;28;20082;-51
2023/08/13 04:21:15;;;;;;;10.77;6.15;;;;;;;;;;4981593;28;20403;-48
2023/08/13 04:23:40;;;;;;;8.68;5.90;;;;;;;;;;4992664;28;20034;-49
2023/08/13 04:26:06;;;;;;;9.65;5.57;;;;;;;;;;4980401;28;20508;-49
2023/08/13 04:28:31;;;;;;;11.70;6.20;;;;;;;;;;4997263;28;20053;-47
2023/08/13 04:30:58;;;;;;;6.55;5.90;;;;;;;;;;4998455;28;20042;-48
2023/08/13 04:33:23;;;;;;;9.18;6.07;;;;;;;;;;4979208;28;20374;-45
2023/08/13 04:35:52;;;;;;;10.07;6.10;;;;;;;;;;5001072;28;20038;-50
2023/08/13 04:38:17;;;;;;;7.97;5.88;;;;;;;;;;4996109;28;20033;-50
2023/08/13 04:40:46;;;;;;;14.77;9.48;;;;;;;;;;5001094;28;20042;-49
2023/08/13 04:43:12;;;;;;;10.13;7.40;;;;;;;;;;4998765;28;20040;-46
2023/08/13 04:45:37;;;;;;;15.35;10.93;;;;;;;;;;4979841;28;20046;-45
2023/08/13 04:48:03;;;;;;;22.08;11.90;;;;;;;;;;4993531;28;20038;-49
2023/08/13 04:50:29;;;;;;;17.10;11.40;;;;;;;;;;4996543;28;20043;-45
2023/08/13 04:52:54;;;;;;;25.13;14.00;;;;;;;;;;4997366;28;20060;-47
2023/08/13 04:55:19;;;;;;;24.92;14.57;;;;;;;;;;4986650;28;20048;-47
2023/08/13 04:57:45;;;;;;;39.38;21.65;;;;;;;;;;4997067;28;20035;-46
2023/08/13 05:00:12;;;;;;;48.00;23.42;;;;;;;;;;4961778;28;20042;-48
2023/08/13 05:02:37;;;;;;;36.90;21.80;;;;;;;;;;4978493;28;20042;-45
2023/08/13 05:05:03;;;;;;;44.28;23.13;;;;;;;;;;4985392;28;20038;-47
2023/08/13 05:07:28;;;;;;;44.70;23.20;;;;;;;;;;5000126;28;20080;-46
2023/08/13 05:09:54;;;;;;;16.60;9.32;;;;;;;;;;4997208;28;20030;-45
2023/08/13 05:12:19;;;;;;;18.30;8.93;;;;;;;;;;4993681;28;20507;-47
2023/08/13 05:14:45;;;;;;;16.73;9.27;;;;;;;;;;4998111;28;20597;-46
2023/08/13 05:17:21;;;;;;;15.38;8.98;;;;;;;;;;5003968;28;20411;-44
2023/08/13 05:19:47;;;;;;;16.98;8.82;;;;;;;;;;5005308;28;20041;-48
2023/08/13 05:22:12;;;;;;;13.25;9.43;;;;;;;;;;4997238;28;20038;-46
2023/08/13 05:24:38;;;;;;;17.38;11.30;;;;;;;;;;4997976;28;20076;-45
2023/08/13 05:27:04;;;;;;;20.58;11.65;;;;;;;;;;4996052;28;20520;-46
2023/08/13 05:29:29;;;;;;;19.60;12.20;;;;;;;;;;4998082;28;20026;-46
2023/08/13 05:31:55;;;;;;;23.38;12.88;;;;;;;;;;4998892;28;20530;-50
2023/08/13 05:34:20;;;;;;;18.95;12.00;;;;;;;;;;5005934;28;20048;-45
2023/08/13 05:36:45;;;;;;;16.88;11.90;;;;;;;;;;4997296;28;20042;-44
2023/08/13 05:39:11;;;;;;;16.60;9.95;;;;;;;;;;4995845;28;20031;-45
2023/08/13 05:41:37;;;;;;;18.45;12.52;;;;;;;;;;4995567;28;20034;-44
2023/08/13 05:44:02;;;;;;;26.58;12.82;;;;;;;;;;4997739;28;20061;-46
2023/08/13 05:46:28;;;;;;;25.00;12.77;;;;;;;;;;4995790;28;20062;-49
2023/08/13 05:48:53;;;;;;;28.50;14.32;;;;;;;;;;4995736;28;20048;-45
2023/08/13 05:51:19;;;;;;;23.10;14.35;;;;;;;;;;4978676;28;20042;-44
2023/08/13 05:53:44;;;;;;;25.75;14.82;;;;;;;;;;4996441;28;20082;-45
2023/08/13 05:56:10;;;;;;;31.67;18.10;;;;;;;;;;4974786;28;20038;-46
2023/08/13 05:58:35;;;;;;;36.28;19.95;;;;;;;;;;4995518;28;20070;-49
2023/08/13 06:01:01;;;;;;;51.30;24.80;;;;;;;;;;4995218;28;20077;-45
2023/08/13 06:03:27;;;;;;;49.83;25.10;;;;;;;;;;4995923;28;20053;-46
2023/08/13 06:05:53;;;;;;;50.85;24.95;;;;;;;;;;4997040;28;20031;-45
2023/08/13 06:08:19;;;;;;;41.28;23.95;;;;;;;;;;4994390;28;20032;-45
2023/08/13 06:10:44;;;;;;;46.72;23.25;;;;;;;;;;4994965;28;20725;-45
2023/08/13 06:13:10;;;;;;;41.55;23.02;;;;;;;;;;4996455;28;20027;-47
2023/08/13 06:15:35;;;;;;;43.75;23.00;;;;;;;;;;4994350;28;20038;-44
2023/08/13 06:18:00;;;;;;;45.90;23.92;;;;;;;;;;4993717;28;20033;-46
2023/08/13 06:20:26;;;;;;;37.50;22.95;;;;;;;;;;4996489;28;20465;-45
2023/08/13 06:22:51;;;;;;;54.15;27.30;;;;;;;;;;4976940;28;20030;-44
2023/08/13 06:25:17;;;;;;;39.63;23.65;;;;;;;;;;4996693;28;20042;-44
2023/08/13 06:27:42;;;;;;;37.05;22.00;;;;;;;;;;4994727;28;20026;-45
2023/08/13 06:30:08;;;;;;;47.80;24.13;;;;;;;;;;4979437;28;20081;-43
2023/08/13 06:32:34;;;;;;;38.17;23.00;;;;;;;;;;4994760;28;20026;-44
2023/08/13 06:34:59;;;;;;;35.35;23.50;;;;;;;;;;4978968;28;20575;-44
2023/08/13 06:37:24;;;;;;;51.30;25.83;;;;;;;;;;4992993;28;20124;-47
2023/08/13 06:39:50;;;;;;;35.47;23.17;;;;;;;;;;4988985;28;20034;-44
2023/08/13 06:42:16;;;;;;;34.40;21.65;;;;;;;;;;4977136;28;20991;-46
2023/08/13 06:44:43;;;;;;;34.70;20.33;;;;;;;;;;4996402;28;20046;-43
2023/08/13 06:47:08;;;;;;;31.85;20.30;;;;;;;;;;4993302;28;20187;-44
2023/08/13 06:49:34;;;;;;;34.00;20.08;;;;;;;;;;4994763;28;20062;-44
2023/08/13 06:51:59;;;;;;;31.40;20.08;;;;;;;;;;4965049;28;20042;-46
2023/08/13 06:54:25;;;;;;;28.35;18.67;;;;;;;;;;4978989;28;20023;-47
2023/08/13 06:56:50;;;;;;;26.10;17.67;;;;;;;;;;5008951;28;20557;-48
2023/08/13 06:59:15;;;;;;;25.42;17.00;;;;;;;;;;4992933;28;20023;-45
2023/08/13 07:01:41;;;;;;;28.08;17.90;;;;;;;;;;4993068;28;20128;-47
2023/08/13 07:04:06;;;;;;;31.60;18.73;;;;;;;;;;4995471;28;20041;-49
2023/08/13 07:06:32;;;;;;;25.35;17.33;;;;;;;;;;4993174;28;20446;-48
2023/08/13 07:08:57;;;;;;;23.88;16.13;;;;;;;;;;4991440;28;20041;-46
2023/08/13 07:11:23;;;;;;;27.88;13.93;;;;;;;;;;4999109;28;20099;-45
2023/08/13 07:13:51;;;;;;;21.40;13.02;;;;;;;;;;4991130;28;20066;-46
2023/08/13 07:16:17;;;;;;;23.58;13.32;;;;;;;;;;4996410;28;20045;-45
2023/08/13 07:18:42;;;;;;;19.98;14.32;;;;;;;;;;4995725;28;20117;-44
2023/08/13 07:21:08;;;;;;;19.35;12.70;;;;;;;;;;4989927;28;20062;-45
2023/08/13 07:23:35;;;;;;;15.48;11.23;;;;;;;;;;4996046;28;20030;-44
2023/08/13 07:26:00;;;;;;;16.08;10.85;;;;;;;;;;4996882;28;20037;-45
2023/08/13 07:28:26;;;;;;;20.15;11.63;;;;;;;;;;4997700;28;20398;-46
2023/08/13 07:30:51;;;;;;;15.32;10.68;;;;;;;;;;4998214;28;20416;-45
2023/08/13 07:33:17;;;;;;;15.68;10.15;;;;;;;;;;5000242;28;20077;-47
2023/08/13 07:35:43;;;;;;;13.95;9.85;;;;;;;;;;4995052;28;20413;-48
2023/08/13 07:38:08;;;;;;;12.77;9.85;;;;;;;;;;5008482;28;20053;-44
2023/08/13 07:40:34;;;;;;;14.20;9.27;;;;;;;;;;4999526;28;20624;-45
2023/08/13 07:43:00;;;;;;;13.93;9.75;;;;;;;;;;4994773;28;20033;-47
2023/08/13 07:45:26;;;;;;;13.85;9.55;;;;;;;;;;4993156;28;20550;-45
2023/08/13 07:47:52;;;;;;;12.40;8.77;;;;;;;;;;4999369;28;20026;-50
2023/08/13 07:50:18;;;;;;;11.85;8.63;;;;;;;;;;4997838;28;20046;-45
2023/08/13 07:52:43;;;;;;;11.77;8.18;;;;;;;;;;4997027;28;20424;-47
2023/08/13 07:55:10;;;;;;;17.50;8.52;;;;;;;;;;4954699;28;20077;-48
2023/08/13 07:57:35;;;;;;;11.05;7.90;;;;;;;;;;4997489;28;20034;-47
2023/08/13 08:00:01;;;;;;;11.38;8.05;;;;;;;;;;4997722;28;20046;-47
2023/08/13 08:02:26;;;;;;;12.95;7.88;;;;;;;;;;4998263;28;20065;-45
2023/08/13 08:04:52;;;;;;;8.55;6.72;;;;;;;;;;4986571;28;20093;-47
2023/08/13 08:07:18;;;;;;;14.32;7.25;;;;;;;;;;4996245;28;20026;-46
2023/08/13 08:09:44;;;;;;;15.02;7.47;;;;;;;;;;4998687;28;20080;-47
2023/08/13 08:12:09;;;;;;;12.35;6.43;;;;;;;;;;4996799;28;20034;-45
2023/08/13 08:14:35;;;;;;;11.25;5.80;;;;;;;;;;4998339;28;20030;-46
2023/08/13 08:17:05;;;;;;;10.15;5.72;;;;;;;;;;4996705;28;20034;-45
2023/08/13 08:19:31;;;;;;;11.68;4.60;;;;;;;;;;4997478;28;20027;-45
2023/08/13 08:21:56;;;;;;;5.35;3.33;;;;;;;;;;4996222;28;20046;-45
2023/08/13 08:24:22;;;;;;;9.52;4.05;;;;;;;;;;4998488;28;20018;-47
2023/08/13 08:26:47;;;;;;;7.97;4.30;;;;;;;;;;4996930;28;20133;-47
2023/08/13 08:29:13;;;;;;;4.57;3.50;;;;;;;;;;5006812;28;20034;-46
2023/08/13 08:31:38;;;;;;;7.93;3.60;;;;;;;;;;4994102;28;20396;-46
2023/08/13 08:34:04;;;;;;;5.93;3.10;;;;;;;;;;5029738;28;20030;-49
2023/08/13 08:36:29;;;;;;;5.85;3.25;;;;;;;;;;4998410;28;20065;-48
2023/08/13 08:38:54;;;;;;;5.50;3.28;;;;;;;;;;4980497;28;20654;-46
2023/08/13 08:41:22;;;;;;;5.53;3.55;;;;;;;;;;4995254;28;20038;-48
2023/08/13 08:43:48;;;;;;;4.93;3.08;;;;;;;;;;4998354;28;20082;-47
2023/08/13 08:46:15;;;;;;;6.50;3.25;;;;;;;;;;4980010;28;20038;-47
2023/08/13 08:48:42;;;;;;;9.57;3.20;;;;;;;;;;4994699;28;20030;-48
2023/08/13 08:51:08;;;;;;;6.07;3.85;;;;;;;;;;4993209;28;20054;-49
2023/08/13 08:53:34;;;;;;;5.85;3.78;;;;;;;;;;4996654;28;20134;-47
2023/08/13 08:56:00;;;;;;;13.52;4.97;;;;;;;;;;4995184;28;20496;-47
2023/08/13 08:58:25;;;;;;;6.60;4.70;;;;;;;;;;4997666;28;20156;-47
2023/08/13 09:00:56;;;;;;;7.03;4.38;;;;;;;;;;4998028;28;20030;-44
2023/08/13 09:03:22;;;;;;;5.97;4.18;;;;;;;;;;4996429;28;20034;-47
2023/08/13 09:05:48;;;;;;;6.15;4.55;;;;;;;;;;4997083;28;20122;-45
2023/08/13 09:08:14;;;;;;;7.35;4.38;;;;;;;;;;4997257;28;20086;-45
2023/08/13 09:10:48;;;;;;;8.75;4.20;;;;;;;;;;4996727;28;20504;-47
2023/08/13 09:13:14;;;;;;;5.22;3.30;;;;;;;;;;4989393;28;20026;-45
2023/08/13 09:15:44;;;;;;;4.95;3.15;;;;;;;;;;4997199;28;20053;-47
2023/08/13 09:18:10;;;;;;;4.88;3.08;;;;;;;;;;4979066;28;20026;-46
2023/08/13 09:20:45;;;;;;;4.32;3.20;;;;;;;;;;4997677;28;20038;-45
2023/08/13 09:23:18;;;;;;;3.25;2.88;;;;;;;;;;5026829;28;20026;-45
2023/08/13 09:25:44;;;;;;;3.63;2.97;;;;;;;;;;5028908;28;20038;-44
2023/08/13 09:28:09;;;;;;;4.85;3.25;;;;;;;;;;4992325;28;20127;-44
2023/08/13 09:30:35;;;;;;;4.70;3.30;;;;;;;;;;4989880;28;20881;-44
2023/08/13 09:33:02;;;;;;;5.88;3.38;;;;;;;;;;4997060;28;20041;-47
2023/08/13 09:35:27;;;;;;;5.07;3.42;;;;;;;;;;4978700;28;20062;-48
2023/08/13 09:37:53;;;;;;;3.83;3.40;;;;;;;;;;4996693;28;20102;-44
2023/08/13 09:40:19;;;;;;;11.75;3.50;;;;;;;;;;4992544;28;20039;-48
2023/08/13 09:42:46;;;;;;;7.70;3.30;;;;;;;;;;4994585;28;20030;-46
2023/08/13 09:45:12;;;;;;;5.30;3.40;;;;;;;;;;5012058;28;20048;-45
2023/08/13 09:47:41;;;;;;;7.20;3.97;;;;;;;;;;4993876;28;20097;-46
2023/08/13 09:50:09;;;;;;;5.57;4.25;;;;;;;;;;4995734;28;20128;-46
2023/08/13 09:52:35;;;;;;;5.07;4.60;;;;;;;;;;4996733;28;20118;-46
2023/08/13 09:55:16;;;;;;;7.40;4.97;;;;;;;;;;4994147;28;20053;-47
2023/08/13 09:57:43;;;;;;;6.25;4.95;;;;;;;;;;4993073;28;20034;-45
2023/08/13 10:00:11;;;;;;;5.15;4.65;;;;;;;;;;4997149;28;20030;-51
2023/08/13 10:02:39;;;;;;;6.82;4.55;;;;;;;;;;4995692;28;20026;-49
2023/08/13 10:05:05;;;;;;;7.50;4.18;;;;;;;;;;5021024;28;20065;-48
2023/08/13 10:07:31;;;;;;;5.53;4.10;;;;;;;;;;4997371;28;20018;-48
2023/08/13 10:09:59;;;;;;;6.25;4.80;;;;;;;;;;4994205;28;20038;-45
2023/08/13 10:12:25;;;;;;;6.68;4.85;;;;;;;;;;4995609;28;20416;-45
2023/08/13 10:14:50;;;;;;;6.38;5.28;;;;;;;;;;4996369;28;20018;-49
2023/08/13 10:17:19;;;;;;;6.10;5.50;;;;;;;;;;4976030;28;20029;-47
2023/08/13 10:19:49;;;;;;;6.75;5.13;;;;;;;;;;4992790;28;20086;-47
2023/08/13 10:22:42;;;;;;;4.90;4.50;;;;;;;;;;4995865;28;20161;-48
2023/08/13 10:25:08;;;;;;;6.22;5.60;;;;;;;;;;4992955;28;20121;-45
2023/08/13 10:27:41;;;;;;;5.70;5.10;;;;;;;;;;4996923;28;20108;-46
2023/08/13 10:30:12;;;;;;;12.18;5.95;;;;;;;;;;4978142;28;20097;-45
2023/08/13 10:32:58;;;;;;;7.03;6.38;;;;;;;;;;4985719;28;20120;-45
2023/08/13 10:35:34;;;;;;;8.60;7.57;;;;;;;;;;4994919;28;20053;-51
2023/08/13 10:38:01;;;;;;;7.20;5.70;;;;;;;;;;4995462;28;20081;-46
2023/08/13 10:40:26;;;;;;;9.68;6.30;;;;;;;;;;4995579;28;20053;-45
2023/08/13 10:42:54;;;;;;;6.75;5.80;;;;;;;;;;4991999;28;20473;-45
2023/08/13 10:45:23;;;;;;;6.32;4.82;;;;;;;;;;4994830;28;20034;-46
2023/08/13 10:48:02;;;;;;;6.88;5.32;;;;;;;;;;4997198;28;20472;-45
2023/08/13 10:50:37;;;;;;;8.85;5.28;;;;;;;;;;4992593;28;20062;-48
2023/08/13 10:53:09;;;;;;;8.05;4.85;;;;;;;;;;4994566;28;20117;-45
2023/08/13 10:55:43;;;;;;;6.90;6.03;;;;;;;;;;4994394;28;20038;-44
2023/08/13 10:58:25;;;;;;;6.60;5.40;;;;;;;;;;4994456;28;20030;-47
2023/08/13 11:00:50;;;;;;;5.57;5.07;;;;;;;;;;5020655;28;20047;-50
2023/08/13 11:03:25;;;;;;;6.00;4.28;;;;;;;;;;4992286;28;20068;-50
2023/08/13 11:05:51;;;;;;;5.38;3.95;;;;;;;;;;4993187;28;20069;-49
2023/08/13 11:08:17;;;;;;;7.38;4.25;;;;;;;;;;4993545;28;20046;-50
2023/08/13 11:10:45;;;;;;;3.50;3.20;;;;;;;;;;4994750;28;20527;-50
2023/08/13 11:13:11;;;;;;;6.40;5.72;;;;;;;;;;4994281;28;20491;-47
2023/08/13 11:15:37;;;;;;;6.35;4.00;;;;;;;;;;4993994;28;20034;-48
2023/08/13 11:18:03;;;;;;;5.68;3.63;;;;;;;;;;4993386;28;20117;-47
2023/08/13 11:20:28;;;;;;;5.47;2.60;;;;;;;;;;4977374;28;20038;-48
2023/08/13 11:22:54;;;;;;;3.53;2.20;;;;;;;;;;4996143;28;20481;-46
2023/08/13 11:25:19;;;;;;;7.80;3.13;;;;;;;;;;4996313;28;20034;-45
2023/08/13 11:27:45;;;;;;;2.80;2.08;;;;;;;;;;4994458;28;20026;-47
2023/08/13 11:30:11;;;;;;;4.28;2.20;;;;;;;;;;5005207;28;20412;-47
2023/08/13 11:32:39;;;;;;;2.20;2.00;;;;;;;;;;4995109;28;20030;-45
2023/08/13 11:35:06;;;;;;;3.92;2.13;;;;;;;;;;4992291;28;20100;-47
2023/08/13 11:37:33;;;;;;;4.25;2.10;;;;;;;;;;4993340;28;20512;-44
2023/08/13 11:39:58;;;;;;;2.78;2.00;;;;;;;;;;4995094;28;20042;-46
2023/08/13 11:42:24;;;;;;;2.78;2.35;;;;;;;;;;4993742;28;20040;-45
2023/08/13 11:44:49;;;;;;;2.88;2.40;;;;;;;;;;4979981;28;20396;-49
2023/08/13 11:47:26;;;;;;;7.20;2.45;;;;;;;;;;4982134;28;20106;-50
2023/08/13 11:49:52;;;;;;;7.18;2.30;;;;;;;;;;4988987;28;20054;-45
2023/08/13 11:52:19;;;;;;;3.72;2.38;;;;;;;;;;4995602;28;20034;-49
2023/08/13 11:54:44;;;;;;;4.82;2.38;;;;;;;;;;5008215;28;20076;-46
2023/08/13 11:57:10;;;;;;;5.25;2.53;;;;;;;;;;4995989;28;20034;-45
2023/08/13 11:59:36;;;;;;;3.28;2.42;;;;;;;;;;4990849;28;20043;-45
2023/08/13 12:02:01;;;;;;;3.47;2.45;;;;;;;;;;4994236;28;20047;-46
2023/08/13 12:04:31;;;;;;;3.03;2.50;;;;;;;;;;4995158;28;20042;-46
2023/08/13 12:06:57;;;;;;;4.93;2.60;;;;;;;;;;4995137;28;20583;-45
2023/08/13 12:09:23;;;;;;;3.05;2.63;;;;;;;;;;4994570;28;20100;-48
2023/08/13 12:11:48;;;;;;;7.22;2.63;;;;;;;;;;4991071;28;20479;-45
2023/08/13 12:14:13;;;;;;;2.60;2.40;;;;;;;;;;5029463;28;20022;-45
2023/08/13 12:16:39;;;;;;;4.43;2.65;;;;;;;;;;5028282;28;20042;-45
2023/08/13 12:19:06;;;;;;;4.65;2.58;;;;;;;;;;4981917;28;20084;-45
2023/08/13 12:21:32;;;;;;;3.78;2.90;;;;;;;;;;4995447;28;20092;-46
2023/08/13 12:23:58;;;;;;;5.45;2.65;;;;;;;;;;4998969;28;20106;-48
2023/08/13 12:26:23;;;;;;;3.88;2.60;;;;;;;;;;4990867;28;20504;-45
2023/08/13 12:28:50;;;;;;;5.05;2.83;;;;;;;;;;4979165;28;20030;-45
2023/08/13 12:31:19;;;;;;;4.15;2.70;;;;;;;;;;4993771;28;20073;-47
2023/08/13 12:33:46;;;;;;;5.03;2.67;;;;;;;;;;4999105;28;20041;-50
2023/08/13 12:36:11;;;;;;;3.25;2.97;;;;;;;;;;4977815;28;20135;-48
2023/08/13 12:38:39;;;;;;;6.85;2.78;;;;;;;;;;4997203;28;20109;-48
2023/08/13 12:41:06;;;;;;;9.43;3.08;;;;;;;;;;4996034;28;20042;-45
2023/08/13 12:43:31;;;;;;;3.80;2.42;;;;;;;;;;5002986;28;20391;-46
2023/08/13 12:45:57;;;;;;;3.30;2.22;;;;;;;;;;4997253;28;20053;-46
2023/08/13 12:48:22;;;;;;;6.82;2.30;;;;;;;;;;4996852;28;20105;-49
2023/08/13 12:50:48;;;;;;;5.05;2.55;;;;;;;;;;4998027;28;20050;-45
2023/08/13 12:53:13;;;;;;;3.35;2.33;;;;;;;;;;4996873;28;20484;-45
2023/08/13 12:55:38;;;;;;;3.65;2.53;;;;;;;;;;5006717;28;20034;-48
2023/08/13 12:58:04;;;;;;;2.92;2.25;;;;;;;;;;5009405;28;20034;-45
2023/08/13 13:00:29;;;;;;;4.40;2.15;;;;;;;;;;4973047;28;20404;-47
2023/08/13 13:02:55;;;;;;;2.40;2.20;;;;;;;;;;4976057;28;20077;-47
2023/08/13 13:05:20;;;;;;;3.72;2.08;;;;;;;;;;4984808;28;20396;-46
2023/08/13 13:07:46;;;;;;;5.63;2.10;;;;;;;;;;4997622;28;20379;-49
2023/08/13 13:10:11;;;;;;;3.20;2.00;;;;;;;;;;4996707;28;20456;-50
2023/08/13 13:12:38;;;;;;;8.77;2.10;;;;;;;;;;4993202;28;20091;-47
2023/08/13 13:15:04;;;;;;;2.40;2.17;;;;;;;;;;4995706;28;20104;-48
2023/08/13 13:17:31;;;;;;;7.22;2.25;;;;;;;;;;4997607;28;20507;-46
2023/08/13 13:19:57;;;;;;;4.60;2.63;;;;;;;;;;4996201;28;22352;-49
2023/08/13 13:22:23;;;;;;;6.78;3.17;;;;;;;;;;4996941;28;20137;-48
2023/08/13 13:24:49;;;;;;;3.35;2.85;;;;;;;;;;4995066;28;20085;-47
2023/08/13 13:27:15;;;;;;;4.43;2.15;;;;;;;;;;4997227;28;20018;-50
2023/08/13 13:29:40;;;;;;;3.35;2.40;;;;;;;;;;4996223;28;20030;-48
2023/08/13 13:32:06;;;;;;;2.30;2.10;;;;;;;;;;5000283;28;20534;-48
2023/08/13 13:34:31;;;;;;;5.05;2.38;;;;;;;;;;4995103;28;20110;-45
2023/08/13 13:36:57;;;;;;;4.15;2.03;;;;;;;;;;4996913;28;20043;-51
2023/08/13 13:39:22;;;;;;;5.65;2.67;;;;;;;;;;4995442;28;20428;-50
2023/08/13 13:41:48;;;;;;;3.45;2.22;;;;;;;;;;4995007;28;20050;-46
2023/08/13 13:44:14;;;;;;;5.53;2.20;;;;;;;;;;4980007;28;20033;-46
2023/08/13 13:46:39;;;;;;;4.43;2.55;;;;;;;;;;5005630;28;20042;-50
2023/08/13 13:49:04;;;;;;;3.50;2.45;;;;;;;;;;4979153;28;20481;-45
2023/08/13 13:51:30;;;;;;;5.20;3.20;;;;;;;;;;4978477;28;20038;-47
2023/08/13 13:53:55;;;;;;;4.10;2.40;;;;;;;;;;5011497;28;20477;-50
2023/08/13 13:56:21;;;;;;;3.97;2.30;;;;;;;;;;5003940;28;20038;-46
2023/08/13 13:58:46;;;;;;;3.03;2.50;;;;;;;;;;4994213;28;20040;-45
2023/08/13 14:01:12;;;;;;;3.20;2.38;;;;;;;;;;4994864;28;20042;-47
2023/08/13 14:03:37;;;;;;;4.65;2.72;;;;;;;;;;4995733;28;20036;-46
2023/08/13 14:06:03;;;;;;;4.28;2.72;;;;;;;;;;4995907;28;20057;-46
2023/08/13 14:08:28;;;;;;;4.68;3.08;;;;;;;;;;4993297;28;20019;-47
2023/08/13 14:10:55;;;;;;;4.15;2.65;;;;;;;;;;4995115;28;20505;-45
2023/08/13 14:13:20;;;;;;;3.63;2.50;;;;;;;;;;4996391;28;20037;-46
2023/08/13 14:15:45;;;;;;;5.18;3.17;;;;;;;;;;4995313;28;20499;-46
2023/08/13 14:18:11;;;;;;;5.15;2.50;;;;;;;;;;4992782;28;20165;-47
2023/08/13 14:20:36;;;;;;;2.25;2.03;;;;;;;;;;4996758;28;20773;-45
2023/08/13 14:23:02;;;;;;;3.63;2.03;;;;;;;;;;4995471;28;20491;-46
2023/08/13 14:25:27;;;;;;;2.17;2.00;;;;;;;;;;5003841;28;20030;-49
2023/08/13 14:27:52;;;;;;;2.95;1.98;;;;;;;;;;4994131;28;20560;-46
2023/08/13 14:30:18;;;;;;;2.63;1.95;;;;;;;;;;4992624;28;20396;-48
2023/08/13 14:32:43;;;;;;;4.60;2.42;;;;;;;;;;4995133;28;20100;-46